sensor_id;sensor_type;location;lat;lon;timestamp;P1;durP1;ratioP1;P2;durP2;ratioP2
43182;SDS011;28802;38.578;-0.066;2022-11-15T00:01:59;10.17;;;4.40;;
43182;SDS011;28802;38.578;-0.066;2022-11-15T00:04:44;17.30;;;6.00;;
43182;SDS011;28802;38.578;-0.066;2022-11-15T00:07:28;11.67;;;4.80;;
43182;SDS011;28802;38.578;-0.066;2022-11-15T00:10:13;12.47;;;4.30;;
43182;SDS011;28802;38.578;-0.066;2022-11-15T00:12:57;5.07;;;3.40;;
43182;SDS011;28802;38.578;-0.066;2022-11-15T00:15:41;14.17;;;4.83;;
43182;SDS011;28802;38.578;-0.066;2022-11-15T00:18:26;7.20;;;4.33;;
43182;SDS011;28802;38.578;-0.066;2022-11-15T00:21:12;6.93;;;3.67;;
43182;SDS011;28802;38.578;-0.066;2022-11-15T00:23:58;4.20;;;2.80;;
43182;SDS011;28802;38.578;-0.066;2022-11-15T00:26:42;5.80;;;3.33;;
43182;SDS011;28802;38.578;-0.066;2022-11-15T00:29:26;6.87;;;4.07;;
43182;SDS011;28802;38.578;-0.066;2022-11-15T00:32:11;5.40;;;3.73;;
43182;SDS011;28802;38.578;-0.066;2022-11-15T00:34:56;6.20;;;3.80;;
43182;SDS011;28802;38.578;-0.066;2022-11-15T00:37:40;4.90;;;2.67;;
43182;SDS011;28802;38.578;-0.066;2022-11-15T00:40:25;8.17;;;3.67;;
43182;SDS011;28802;38.578;-0.066;2022-11-15T00:43:09;4.50;;;2.90;;
43182;SDS011;28802;38.578;-0.066;2022-11-15T00:45:54;7.43;;;3.60;;
43182;SDS011;28802;38.578;-0.066;2022-11-15T00:48:38;7.07;;;3.17;;
43182;SDS011;28802;38.578;-0.066;2022-11-15T00:51:23;10.83;;;3.67;;
43182;SDS011;28802;38.578;-0.066;2022-11-15T00:54:07;6.20;;;2.83;;
43182;SDS011;28802;38.578;-0.066;2022-11-15T00:56:52;8.00;;;3.17;;
43182;SDS011;28802;38.578;-0.066;2022-11-15T00:59:36;5.83;;;3.17;;
43182;SDS011;28802;38.578;-0.066;2022-11-15T01:02:21;2.90;;;2.60;;
43182;SDS011;28802;38.578;-0.066;2022-11-15T01:05:05;8.73;;;3.37;;
43182;SDS011;28802;38.578;-0.066;2022-11-15T01:07:54;5.40;;;3.43;;
43182;SDS011;28802;38.578;-0.066;2022-11-15T01:10:39;10.93;;;3.27;;
43182;SDS011;28802;38.578;-0.066;2022-11-15T01:13:24;12.03;;;2.70;;
43182;SDS011;28802;38.578;-0.066;2022-11-15T01:16:10;7.70;;;3.00;;
43182;SDS011;28802;38.578;-0.066;2022-11-15T01:19:00;4.87;;;3.10;;
43182;SDS011;28802;38.578;-0.066;2022-11-15T01:21:44;2.67;;;2.47;;
43182;SDS011;28802;38.578;-0.066;2022-11-15T01:24:28;8.60;;;3.27;;
43182;SDS011;28802;38.578;-0.066;2022-11-15T01:27:13;6.57;;;2.90;;
43182;SDS011;28802;38.578;-0.066;2022-11-15T01:29:58;4.13;;;2.40;;
43182;SDS011;28802;38.578;-0.066;2022-11-15T01:32:42;6.67;;;3.23;;
43182;SDS011;28802;38.578;-0.066;2022-11-15T01:35:27;5.10;;;2.47;;
43182;SDS011;28802;38.578;-0.066;2022-11-15T01:38:11;6.93;;;3.10;;
43182;SDS011;28802;38.578;-0.066;2022-11-15T01:40:56;4.80;;;3.10;;
43182;SDS011;28802;38.578;-0.066;2022-11-15T01:43:40;5.17;;;2.47;;
43182;SDS011;28802;38.578;-0.066;2022-11-15T01:46:29;5.50;;;2.87;;
43182;SDS011;28802;38.578;-0.066;2022-11-15T01:49:18;3.37;;;2.47;;
43182;SDS011;28802;38.578;-0.066;2022-11-15T01:52:07;4.77;;;2.53;;
43182;SDS011;28802;38.578;-0.066;2022-11-15T01:55:05;7.27;;;3.23;;
43182;SDS011;28802;38.578;-0.066;2022-11-15T01:57:57;12.13;;;2.90;;
43182;SDS011;28802;38.578;-0.066;2022-11-15T02:00:45;5.97;;;3.10;;
43182;SDS011;28802;38.578;-0.066;2022-11-15T02:03:33;4.10;;;2.47;;
43182;SDS011;28802;38.578;-0.066;2022-11-15T02:06:25;3.27;;;2.10;;
43182;SDS011;28802;38.578;-0.066;2022-11-15T02:09:09;4.20;;;2.30;;
43182;SDS011;28802;38.578;-0.066;2022-11-15T02:11:54;3.20;;;2.00;;
43182;SDS011;28802;38.578;-0.066;2022-11-15T02:14:40;2.80;;;1.77;;
43182;SDS011;28802;38.578;-0.066;2022-11-15T02:30:04;4.53;;;2.43;;
43182;SDS011;28802;38.578;-0.066;2022-11-15T02:32:24;5.93;;;2.60;;
43182;SDS011;28802;38.578;-0.066;2022-11-15T02:38:25;5.83;;;2.90;;
43182;SDS011;28802;38.578;-0.066;2022-11-15T02:44:39;2.87;;;1.87;;
43182;SDS011;28802;38.578;-0.066;2022-11-15T02:47:27;4.33;;;1.70;;
43182;SDS011;28802;38.578;-0.066;2022-11-15T02:50:17;5.80;;;2.77;;
43182;SDS011;28802;38.578;-0.066;2022-11-15T02:53:04;3.60;;;2.17;;
43182;SDS011;28802;38.578;-0.066;2022-11-15T02:55:50;7.60;;;2.50;;
43182;SDS011;28802;38.578;-0.066;2022-11-15T03:08:10;4.07;;;3.10;;
43182;SDS011;28802;38.578;-0.066;2022-11-15T03:20:08;4.80;;;2.67;;
43182;SDS011;28802;38.578;-0.066;2022-11-15T03:22:56;6.80;;;2.70;;
43182;SDS011;28802;38.578;-0.066;2022-11-15T03:25:46;7.70;;;3.07;;
43182;SDS011;28802;38.578;-0.066;2022-11-15T03:28:41;2.83;;;2.27;;
43182;SDS011;28802;38.578;-0.066;2022-11-15T03:31:32;4.73;;;2.80;;
43182;SDS011;28802;38.578;-0.066;2022-11-15T03:37:21;5.93;;;2.30;;
43182;SDS011;28802;38.578;-0.066;2022-11-15T03:40:11;3.30;;;2.33;;
43182;SDS011;28802;38.578;-0.066;2022-11-15T03:45:51;5.40;;;2.10;;
43182;SDS011;28802;38.578;-0.066;2022-11-15T03:48:49;5.47;;;2.33;;
43182;SDS011;28802;38.578;-0.066;2022-11-15T03:51:36;4.03;;;2.27;;
43182;SDS011;28802;38.578;-0.066;2022-11-15T03:54:21;7.40;;;2.20;;
43182;SDS011;28802;38.578;-0.066;2022-11-15T03:57:06;3.87;;;1.90;;
43182;SDS011;28802;38.578;-0.066;2022-11-15T03:59:50;12.63;;;1.60;;
43182;SDS011;28802;38.578;-0.066;2022-11-15T04:02:34;3.83;;;2.00;;
43182;SDS011;28802;38.578;-0.066;2022-11-15T04:05:19;2.90;;;1.53;;
43182;SDS011;28802;38.578;-0.066;2022-11-15T04:08:04;6.53;;;1.60;;
43182;SDS011;28802;38.578;-0.066;2022-11-15T04:10:48;7.73;;;1.80;;
43182;SDS011;28802;38.578;-0.066;2022-11-15T04:13:33;2.30;;;1.40;;
43182;SDS011;28802;38.578;-0.066;2022-11-15T04:16:18;1.27;;;0.90;;
43182;SDS011;28802;38.578;-0.066;2022-11-15T04:19:02;4.20;;;1.60;;
43182;SDS011;28802;38.578;-0.066;2022-11-15T04:22:07;2.37;;;1.70;;
43182;SDS011;28802;38.578;-0.066;2022-11-15T04:25:10;2.93;;;0.80;;
43182;SDS011;28802;38.578;-0.066;2022-11-15T04:27:54;1.23;;;0.83;;
43182;SDS011;28802;38.578;-0.066;2022-11-15T04:30:39;2.93;;;1.47;;
43182;SDS011;28802;38.578;-0.066;2022-11-15T04:33:24;2.43;;;1.53;;
43182;SDS011;28802;38.578;-0.066;2022-11-15T04:36:08;5.07;;;2.30;;
43182;SDS011;28802;38.578;-0.066;2022-11-15T04:39:11;5.10;;;1.90;;
43182;SDS011;28802;38.578;-0.066;2022-11-15T04:41:56;4.43;;;1.33;;
43182;SDS011;28802;38.578;-0.066;2022-11-15T04:44:40;3.97;;;2.33;;
43182;SDS011;28802;38.578;-0.066;2022-11-15T04:47:24;2.17;;;1.53;;
43182;SDS011;28802;38.578;-0.066;2022-11-15T04:50:09;3.17;;;1.63;;
43182;SDS011;28802;38.578;-0.066;2022-11-15T04:52:57;9.03;;;1.63;;
43182;SDS011;28802;38.578;-0.066;2022-11-15T04:55:43;6.43;;;2.60;;
43182;SDS011;28802;38.578;-0.066;2022-11-15T04:58:29;3.77;;;1.50;;
43182;SDS011;28802;38.578;-0.066;2022-11-15T05:01:13;4.43;;;1.50;;
43182;SDS011;28802;38.578;-0.066;2022-11-15T05:03:58;3.37;;;1.83;;
43182;SDS011;28802;38.578;-0.066;2022-11-15T05:07:01;1.80;;;1.33;;
43182;SDS011;28802;38.578;-0.066;2022-11-15T05:09:47;2.13;;;1.30;;
43182;SDS011;28802;38.578;-0.066;2022-11-15T05:12:31;2.37;;;1.40;;
43182;SDS011;28802;38.578;-0.066;2022-11-15T05:15:16;2.30;;;1.27;;
43182;SDS011;28802;38.578;-0.066;2022-11-15T05:18:00;3.53;;;1.30;;
43182;SDS011;28802;38.578;-0.066;2022-11-15T05:20:45;1.60;;;1.20;;
43182;SDS011;28802;38.578;-0.066;2022-11-15T05:23:29;7.00;;;2.00;;
43182;SDS011;28802;38.578;-0.066;2022-11-15T05:26:15;10.63;;;2.00;;
43182;SDS011;28802;38.578;-0.066;2022-11-15T05:29:01;2.13;;;1.43;;
43182;SDS011;28802;38.578;-0.066;2022-11-15T05:31:46;1.87;;;1.07;;
43182;SDS011;28802;38.578;-0.066;2022-11-15T05:34:30;4.20;;;1.17;;
43182;SDS011;28802;38.578;-0.066;2022-11-15T05:37:15;1.83;;;1.00;;
43182;SDS011;28802;38.578;-0.066;2022-11-15T05:40:00;1.43;;;0.80;;
43182;SDS011;28802;38.578;-0.066;2022-11-15T05:42:44;1.53;;;0.83;;
43182;SDS011;28802;38.578;-0.066;2022-11-15T05:45:31;2.33;;;1.07;;
43182;SDS011;28802;38.578;-0.066;2022-11-15T05:48:20;3.20;;;1.00;;
43182;SDS011;28802;38.578;-0.066;2022-11-15T05:51:05;1.57;;;0.77;;
43182;SDS011;28802;38.578;-0.066;2022-11-15T05:53:51;2.23;;;0.97;;
43182;SDS011;28802;38.578;-0.066;2022-11-15T05:56:36;5.43;;;1.30;;
43182;SDS011;28802;38.578;-0.066;2022-11-15T05:59:21;3.57;;;1.20;;
43182;SDS011;28802;38.578;-0.066;2022-11-15T06:02:06;1.77;;;1.17;;
43182;SDS011;28802;38.578;-0.066;2022-11-15T06:04:50;5.07;;;0.93;;
43182;SDS011;28802;38.578;-0.066;2022-11-15T06:07:35;2.03;;;1.00;;
43182;SDS011;28802;38.578;-0.066;2022-11-15T06:10:19;3.43;;;1.40;;
43182;SDS011;28802;38.578;-0.066;2022-11-15T06:13:04;2.00;;;1.10;;
43182;SDS011;28802;38.578;-0.066;2022-11-15T06:15:49;3.73;;;1.03;;
43182;SDS011;28802;38.578;-0.066;2022-11-15T06:18:33;3.63;;;0.97;;
43182;SDS011;28802;38.578;-0.066;2022-11-15T06:21:19;17.53;;;1.40;;
43182;SDS011;28802;38.578;-0.066;2022-11-15T06:24:04;10.23;;;2.30;;
43182;SDS011;28802;38.578;-0.066;2022-11-15T06:26:48;1.80;;;1.40;;
43182;SDS011;28802;38.578;-0.066;2022-11-15T06:29:33;6.00;;;1.13;;
43182;SDS011;28802;38.578;-0.066;2022-11-15T06:32:18;2.60;;;1.20;;
43182;SDS011;28802;38.578;-0.066;2022-11-15T06:35:02;1.53;;;1.13;;
43182;SDS011;28802;38.578;-0.066;2022-11-15T06:37:46;2.10;;;1.10;;
43182;SDS011;28802;38.578;-0.066;2022-11-15T06:40:33;4.50;;;1.40;;
43182;SDS011;28802;38.578;-0.066;2022-11-15T06:43:18;7.13;;;0.97;;
43182;SDS011;28802;38.578;-0.066;2022-11-15T06:46:03;5.03;;;1.30;;
43182;SDS011;28802;38.578;-0.066;2022-11-15T06:48:50;8.43;;;5.00;;
43182;SDS011;28802;38.578;-0.066;2022-11-15T06:51:35;4.27;;;2.40;;
43182;SDS011;28802;38.578;-0.066;2022-11-15T06:57:12;5.80;;;1.83;;
43182;SDS011;28802;38.578;-0.066;2022-11-15T06:59:56;9.90;;;2.40;;
43182;SDS011;28802;38.578;-0.066;2022-11-15T07:02:41;8.17;;;2.43;;
43182;SDS011;28802;38.578;-0.066;2022-11-15T07:05:26;5.37;;;1.67;;
43182;SDS011;28802;38.578;-0.066;2022-11-15T07:08:11;12.00;;;2.27;;
43182;SDS011;28802;38.578;-0.066;2022-11-15T07:10:59;13.80;;;2.50;;
43182;SDS011;28802;38.578;-0.066;2022-11-15T07:13:45;5.73;;;1.73;;
43182;SDS011;28802;38.578;-0.066;2022-11-15T07:16:30;4.43;;;1.50;;
43182;SDS011;28802;38.578;-0.066;2022-11-15T07:19:14;5.37;;;2.73;;
43182;SDS011;28802;38.578;-0.066;2022-11-15T07:21:59;9.43;;;5.20;;
43182;SDS011;28802;38.578;-0.066;2022-11-15T07:24:44;9.20;;;3.63;;
43182;SDS011;28802;38.578;-0.066;2022-11-15T07:27:28;9.20;;;4.30;;
43182;SDS011;28802;38.578;-0.066;2022-11-15T07:30:13;23.23;;;5.60;;
43182;SDS011;28802;38.578;-0.066;2022-11-15T07:32:58;8.37;;;4.57;;
43182;SDS011;28802;38.578;-0.066;2022-11-15T07:35:44;10.97;;;6.47;;
43182;SDS011;28802;38.578;-0.066;2022-11-15T07:38:32;10.87;;;6.40;;
43182;SDS011;28802;38.578;-0.066;2022-11-15T07:41:18;13.20;;;6.60;;
43182;SDS011;28802;38.578;-0.066;2022-11-15T07:44:03;10.07;;;5.70;;
43182;SDS011;28802;38.578;-0.066;2022-11-15T07:46:47;10.93;;;5.20;;
43182;SDS011;28802;38.578;-0.066;2022-11-15T07:49:32;12.07;;;6.20;;
43182;SDS011;28802;38.578;-0.066;2022-11-15T07:52:16;8.80;;;5.17;;
43182;SDS011;28802;38.578;-0.066;2022-11-15T07:55:01;16.90;;;6.00;;
43182;SDS011;28802;38.578;-0.066;2022-11-15T07:57:46;13.67;;;6.50;;
43182;SDS011;28802;38.578;-0.066;2022-11-15T08:00:31;11.47;;;5.20;;
43182;SDS011;28802;38.578;-0.066;2022-11-15T08:03:16;12.03;;;3.70;;
43182;SDS011;28802;38.578;-0.066;2022-11-15T08:06:01;21.63;;;4.57;;
43182;SDS011;28802;38.578;-0.066;2022-11-15T08:08:46;16.83;;;3.33;;
43182;SDS011;28802;38.578;-0.066;2022-11-15T08:11:37;11.40;;;3.67;;
43182;SDS011;28802;38.578;-0.066;2022-11-15T08:14:22;14.10;;;2.87;;
43182;SDS011;28802;38.578;-0.066;2022-11-15T08:17:07;5.30;;;2.40;;
43182;SDS011;28802;38.578;-0.066;2022-11-15T08:19:57;12.07;;;2.90;;
43182;SDS011;28802;38.578;-0.066;2022-11-15T08:22:41;6.37;;;2.20;;
43182;SDS011;28802;38.578;-0.066;2022-11-15T08:25:27;9.20;;;2.77;;
43182;SDS011;28802;38.578;-0.066;2022-11-15T08:28:15;17.53;;;3.33;;
43182;SDS011;28802;38.578;-0.066;2022-11-15T08:31:01;24.90;;;3.17;;
43182;SDS011;28802;38.578;-0.066;2022-11-15T08:33:47;9.53;;;2.10;;
43182;SDS011;28802;38.578;-0.066;2022-11-15T08:36:32;9.80;;;1.73;;
43182;SDS011;28802;38.578;-0.066;2022-11-15T08:39:16;11.80;;;2.00;;
43182;SDS011;28802;38.578;-0.066;2022-11-15T08:42:01;8.07;;;1.70;;
43182;SDS011;28802;38.578;-0.066;2022-11-15T08:44:45;14.10;;;1.83;;
43182;SDS011;28802;38.578;-0.066;2022-11-15T08:47:30;12.87;;;2.20;;
43182;SDS011;28802;38.578;-0.066;2022-11-15T08:50:15;10.73;;;1.47;;
43182;SDS011;28802;38.578;-0.066;2022-11-15T08:53:06;6.93;;;1.37;;
43182;SDS011;28802;38.578;-0.066;2022-11-15T08:55:52;4.40;;;1.50;;
43182;SDS011;28802;38.578;-0.066;2022-11-15T08:58:37;3.60;;;1.40;;
43182;SDS011;28802;38.578;-0.066;2022-11-15T09:01:21;3.30;;;1.03;;
43182;SDS011;28802;38.578;-0.066;2022-11-15T09:04:06;4.90;;;0.90;;
43182;SDS011;28802;38.578;-0.066;2022-11-15T09:06:50;2.90;;;0.70;;
43182;SDS011;28802;38.578;-0.066;2022-11-15T09:09:35;3.10;;;1.03;;
43182;SDS011;28802;38.578;-0.066;2022-11-15T09:12:20;5.73;;;1.10;;
43182;SDS011;28802;38.578;-0.066;2022-11-15T09:15:05;3.77;;;1.47;;
43182;SDS011;28802;38.578;-0.066;2022-11-15T09:17:49;4.90;;;1.30;;
43182;SDS011;28802;38.578;-0.066;2022-11-15T09:20:34;7.63;;;1.73;;
43182;SDS011;28802;38.578;-0.066;2022-11-15T09:23:18;4.07;;;0.90;;
43182;SDS011;28802;38.578;-0.066;2022-11-15T09:26:03;3.90;;;1.30;;
43182;SDS011;28802;38.578;-0.066;2022-11-15T09:28:49;27.40;;;2.50;;
43182;SDS011;28802;38.578;-0.066;2022-11-15T09:31:33;4.03;;;1.20;;
43182;SDS011;28802;38.578;-0.066;2022-11-15T09:34:18;2.57;;;0.73;;
43182;SDS011;28802;38.578;-0.066;2022-11-15T09:37:03;4.13;;;1.27;;
43182;SDS011;28802;38.578;-0.066;2022-11-15T09:39:48;4.90;;;1.10;;
43182;SDS011;28802;38.578;-0.066;2022-11-15T09:49:09;4.27;;;1.50;;
43182;SDS011;28802;38.578;-0.066;2022-11-15T09:52:00;5.30;;;1.23;;
43182;SDS011;28802;38.578;-0.066;2022-11-15T09:54:29;7.43;;;1.50;;
43182;SDS011;28802;38.578;-0.066;2022-11-15T09:57:02;7.47;;;1.90;;
43182;SDS011;28802;38.578;-0.066;2022-11-15T10:02:51;10.90;;;2.00;;
43182;SDS011;28802;38.578;-0.066;2022-11-15T10:05:29;11.33;;;2.00;;
43182;SDS011;28802;38.578;-0.066;2022-11-15T10:08:03;5.27;;;1.53;;
43182;SDS011;28802;38.578;-0.066;2022-11-15T10:10:44;5.30;;;1.73;;
43182;SDS011;28802;38.578;-0.066;2022-11-15T10:46:27;8.53;;;2.60;;
43182;SDS011;28802;38.578;-0.066;2022-11-15T10:48:53;12.13;;;3.10;;
43182;SDS011;28802;38.578;-0.066;2022-11-15T10:51:52;10.83;;;3.30;;
43182;SDS011;28802;38.578;-0.066;2022-11-15T10:54:41;12.70;;;3.60;;
43182;SDS011;28802;38.578;-0.066;2022-11-15T10:57:12;8.63;;;3.47;;
43182;SDS011;28802;38.578;-0.066;2022-11-15T10:59:59;12.27;;;3.67;;
43182;SDS011;28802;38.578;-0.066;2022-11-15T11:02:35;12.20;;;4.30;;
43182;SDS011;28802;38.578;-0.066;2022-11-15T11:05:04;6.80;;;3.20;;
43182;SDS011;28802;38.578;-0.066;2022-11-15T11:08:03;11.53;;;4.03;;
43182;SDS011;28802;38.578;-0.066;2022-11-15T11:10:31;10.07;;;4.00;;
43182;SDS011;28802;38.578;-0.066;2022-11-15T11:13:40;9.23;;;3.33;;
43182;SDS011;28802;38.578;-0.066;2022-11-15T11:15:48;8.13;;;3.80;;
43182;SDS011;28802;38.578;-0.066;2022-11-15T11:18:27;15.47;;;3.70;;
43182;SDS011;28802;38.578;-0.066;2022-11-15T11:21:07;20.00;;;5.40;;
43182;SDS011;28802;38.578;-0.066;2022-11-15T11:26:15;10.23;;;3.80;;
43182;SDS011;28802;38.578;-0.066;2022-11-15T11:28:54;11.63;;;3.40;;
43182;SDS011;28802;38.578;-0.066;2022-11-15T11:40:16;9.00;;;3.97;;
43182;SDS011;28802;38.578;-0.066;2022-11-15T11:51:13;9.60;;;4.37;;
43182;SDS011;28802;38.578;-0.066;2022-11-15T11:53:57;13.97;;;5.33;;
43182;SDS011;28802;38.578;-0.066;2022-11-15T11:56:33;9.80;;;4.00;;
43182;SDS011;28802;38.578;-0.066;2022-11-15T11:59:05;7.10;;;3.33;;
43182;SDS011;28802;38.578;-0.066;2022-11-15T12:01:45;9.20;;;3.90;;
43182;SDS011;28802;38.578;-0.066;2022-11-15T12:04:13;8.13;;;3.80;;
43182;SDS011;28802;38.578;-0.066;2022-11-15T12:07:13;10.20;;;3.63;;
43182;SDS011;28802;38.578;-0.066;2022-11-15T12:09:46;9.63;;;3.23;;
43182;SDS011;28802;38.578;-0.066;2022-11-15T12:15:27;15.10;;;4.17;;
43182;SDS011;28802;38.578;-0.066;2022-11-15T12:17:58;12.13;;;4.37;;
43182;SDS011;28802;38.578;-0.066;2022-11-15T12:20:27;12.17;;;4.00;;
43182;SDS011;28802;38.578;-0.066;2022-11-15T12:23:17;18.93;;;6.10;;
43182;SDS011;28802;38.578;-0.066;2022-11-15T12:31:26;11.00;;;3.80;;
43182;SDS011;28802;38.578;-0.066;2022-11-15T12:33:41;5.50;;;2.67;;
43182;SDS011;28802;38.578;-0.066;2022-11-15T12:41:19;13.40;;;2.90;;
43182;SDS011;28802;38.578;-0.066;2022-11-15T12:43:46;14.33;;;4.27;;
43182;SDS011;28802;38.578;-0.066;2022-11-15T12:51:18;15.23;;;2.20;;
43182;SDS011;28802;38.578;-0.066;2022-11-15T12:53:45;11.23;;;3.07;;
43182;SDS011;28802;38.578;-0.066;2022-11-15T12:58:54;6.60;;;2.00;;
43182;SDS011;28802;38.578;-0.066;2022-11-15T13:06:53;14.00;;;5.20;;
43182;SDS011;28802;38.578;-0.066;2022-11-15T13:17:34;11.30;;;4.57;;
43182;SDS011;28802;38.578;-0.066;2022-11-15T13:20:23;11.80;;;4.70;;
43182;SDS011;28802;38.578;-0.066;2022-11-15T13:27:53;20.17;;;6.13;;
43182;SDS011;28802;38.578;-0.066;2022-11-15T13:30:23;16.00;;;6.97;;
43182;SDS011;28802;38.578;-0.066;2022-11-15T13:32:51;24.97;;;12.23;;
43182;SDS011;28802;38.578;-0.066;2022-11-15T13:35:27;24.83;;;13.10;;
43182;SDS011;28802;38.578;-0.066;2022-11-15T13:37:56;44.77;;;22.60;;
43182;SDS011;28802;38.578;-0.066;2022-11-15T13:40:33;37.47;;;22.20;;
43182;SDS011;28802;38.578;-0.066;2022-11-15T13:43:13;30.20;;;16.60;;
43182;SDS011;28802;38.578;-0.066;2022-11-15T13:45:49;29.40;;;12.07;;
43182;SDS011;28802;38.578;-0.066;2022-11-15T13:48:34;17.97;;;7.23;;
43182;SDS011;28802;38.578;-0.066;2022-11-15T13:51:04;12.57;;;5.43;;
43182;SDS011;28802;38.578;-0.066;2022-11-15T13:53:40;14.20;;;4.70;;
43182;SDS011;28802;38.578;-0.066;2022-11-15T13:56:12;9.10;;;4.13;;
43182;SDS011;28802;38.578;-0.066;2022-11-15T13:58:40;11.20;;;5.53;;
43182;SDS011;28802;38.578;-0.066;2022-11-15T14:01:06;16.40;;;4.40;;
43182;SDS011;28802;38.578;-0.066;2022-11-15T14:03:42;10.70;;;4.13;;
43182;SDS011;28802;38.578;-0.066;2022-11-15T14:06:16;11.70;;;5.20;;
43182;SDS011;28802;38.578;-0.066;2022-11-15T14:11:52;10.60;;;4.80;;
43182;SDS011;28802;38.578;-0.066;2022-11-15T14:14:23;9.97;;;4.73;;
43182;SDS011;28802;38.578;-0.066;2022-11-15T14:16:51;11.67;;;3.63;;
43182;SDS011;28802;38.578;-0.066;2022-11-15T14:24:35;10.87;;;4.33;;
43182;SDS011;28802;38.578;-0.066;2022-11-15T14:27:20;14.20;;;4.37;;
43182;SDS011;28802;38.578;-0.066;2022-11-15T14:29:48;7.30;;;3.23;;
43182;SDS011;28802;38.578;-0.066;2022-11-15T14:32:24;15.03;;;2.80;;
43182;SDS011;28802;38.578;-0.066;2022-11-15T14:34:59;6.00;;;2.30;;
43182;SDS011;28802;38.578;-0.066;2022-11-15T14:37:33;7.53;;;2.40;;
43182;SDS011;28802;38.578;-0.066;2022-11-15T14:40:00;7.67;;;2.50;;
43182;SDS011;28802;38.578;-0.066;2022-11-15T14:42:28;10.27;;;2.67;;
43182;SDS011;28802;38.578;-0.066;2022-11-15T14:44:54;7.83;;;3.07;;
43182;SDS011;28802;38.578;-0.066;2022-11-15T14:47:20;9.23;;;2.73;;
43182;SDS011;28802;38.578;-0.066;2022-11-15T14:49:45;6.93;;;3.50;;
43182;SDS011;28802;38.578;-0.066;2022-11-15T14:52:31;12.10;;;3.20;;
43182;SDS011;28802;38.578;-0.066;2022-11-15T14:55:01;6.83;;;2.97;;
43182;SDS011;28802;38.578;-0.066;2022-11-15T14:57:29;12.00;;;3.67;;
43182;SDS011;28802;38.578;-0.066;2022-11-15T14:59:55;7.97;;;2.87;;
43182;SDS011;28802;38.578;-0.066;2022-11-15T15:02:23;5.60;;;2.77;;
43182;SDS011;28802;38.578;-0.066;2022-11-15T15:04:50;12.50;;;3.60;;
43182;SDS011;28802;38.578;-0.066;2022-11-15T15:07:16;11.73;;;2.87;;
43182;SDS011;28802;38.578;-0.066;2022-11-15T15:09:42;8.20;;;2.43;;
43182;SDS011;28802;38.578;-0.066;2022-11-15T15:12:14;11.87;;;3.23;;
43182;SDS011;28802;38.578;-0.066;2022-11-15T15:14:42;9.20;;;2.30;;
43182;SDS011;28802;38.578;-0.066;2022-11-15T15:17:08;9.60;;;3.10;;
43182;SDS011;28802;38.578;-0.066;2022-11-15T15:19:35;7.43;;;2.20;;
43182;SDS011;28802;38.578;-0.066;2022-11-15T15:22:01;7.27;;;2.57;;
43182;SDS011;28802;38.578;-0.066;2022-11-15T15:24:26;7.20;;;2.10;;
43182;SDS011;28802;38.578;-0.066;2022-11-15T15:26:52;6.33;;;2.43;;
43182;SDS011;28802;38.578;-0.066;2022-11-15T15:29:18;7.53;;;1.97;;
43182;SDS011;28802;38.578;-0.066;2022-11-15T15:31:44;7.93;;;2.60;;
43182;SDS011;28802;38.578;-0.066;2022-11-15T15:34:10;6.07;;;2.37;;
43182;SDS011;28802;38.578;-0.066;2022-11-15T15:36:35;8.50;;;2.23;;
43182;SDS011;28802;38.578;-0.066;2022-11-15T15:39:01;5.93;;;2.50;;
43182;SDS011;28802;38.578;-0.066;2022-11-15T15:41:27;8.53;;;2.63;;
43182;SDS011;28802;38.578;-0.066;2022-11-15T15:43:53;4.23;;;2.00;;
43182;SDS011;28802;38.578;-0.066;2022-11-15T15:46:19;6.60;;;2.13;;
43182;SDS011;28802;38.578;-0.066;2022-11-15T15:48:46;9.47;;;2.20;;
43182;SDS011;28802;38.578;-0.066;2022-11-15T15:51:12;12.93;;;2.30;;
43182;SDS011;28802;38.578;-0.066;2022-11-15T15:53:38;11.43;;;2.73;;
43182;SDS011;28802;38.578;-0.066;2022-11-15T15:56:04;10.57;;;2.33;;
43182;SDS011;28802;38.578;-0.066;2022-11-15T15:58:33;11.97;;;2.10;;
43182;SDS011;28802;38.578;-0.066;2022-11-15T16:01:00;10.40;;;2.40;;
43182;SDS011;28802;38.578;-0.066;2022-11-15T16:03:26;5.10;;;2.17;;
43182;SDS011;28802;38.578;-0.066;2022-11-15T16:05:53;9.93;;;2.77;;
43182;SDS011;28802;38.578;-0.066;2022-11-15T16:08:20;5.63;;;1.87;;
43182;SDS011;28802;38.578;-0.066;2022-11-15T16:10:47;5.10;;;2.00;;
43182;SDS011;28802;38.578;-0.066;2022-11-15T16:13:13;5.17;;;2.20;;
43182;SDS011;28802;38.578;-0.066;2022-11-15T16:15:39;6.87;;;2.10;;
43182;SDS011;28802;38.578;-0.066;2022-11-15T16:18:08;6.20;;;2.27;;
43182;SDS011;28802;38.578;-0.066;2022-11-15T16:20:41;8.03;;;2.80;;
43182;SDS011;28802;38.578;-0.066;2022-11-15T16:23:14;8.47;;;2.57;;
43182;SDS011;28802;38.578;-0.066;2022-11-15T16:25:46;8.83;;;2.20;;
43182;SDS011;28802;38.578;-0.066;2022-11-15T16:28:25;5.00;;;2.20;;
43182;SDS011;28802;38.578;-0.066;2022-11-15T16:31:26;8.53;;;2.90;;
43182;SDS011;28802;38.578;-0.066;2022-11-15T16:33:48;8.63;;;3.27;;
43182;SDS011;28802;38.578;-0.066;2022-11-15T16:38:45;8.10;;;2.97;;
43182;SDS011;28802;38.578;-0.066;2022-11-15T16:41:11;7.70;;;2.83;;
43182;SDS011;28802;38.578;-0.066;2022-11-15T16:43:36;9.80;;;3.10;;
43182;SDS011;28802;38.578;-0.066;2022-11-15T16:46:17;13.93;;;3.23;;
43182;SDS011;28802;38.578;-0.066;2022-11-15T16:48:44;6.50;;;2.53;;
43182;SDS011;28802;38.578;-0.066;2022-11-15T16:51:11;12.97;;;3.20;;
43182;SDS011;28802;38.578;-0.066;2022-11-15T16:53:37;8.67;;;2.50;;
43182;SDS011;28802;38.578;-0.066;2022-11-15T16:56:03;15.50;;;3.23;;
43182;SDS011;28802;38.578;-0.066;2022-11-15T16:58:57;7.90;;;2.17;;
43182;SDS011;28802;38.578;-0.066;2022-11-15T17:01:25;9.87;;;3.50;;
43182;SDS011;28802;38.578;-0.066;2022-11-15T17:03:53;23.97;;;3.70;;
43182;SDS011;28802;38.578;-0.066;2022-11-15T17:06:19;5.87;;;3.10;;
43182;SDS011;28802;38.578;-0.066;2022-11-15T17:08:47;10.00;;;4.03;;
43182;SDS011;28802;38.578;-0.066;2022-11-15T17:11:17;14.03;;;4.07;;
43182;SDS011;28802;38.578;-0.066;2022-11-15T17:13:45;6.50;;;2.87;;
43182;SDS011;28802;38.578;-0.066;2022-11-15T17:16:13;5.90;;;3.30;;
43182;SDS011;28802;38.578;-0.066;2022-11-15T17:18:41;13.63;;;2.70;;
43182;SDS011;28802;38.578;-0.066;2022-11-15T17:21:12;12.50;;;3.30;;
43182;SDS011;28802;38.578;-0.066;2022-11-15T17:23:39;14.43;;;3.33;;
43182;SDS011;28802;38.578;-0.066;2022-11-15T17:26:05;10.13;;;3.07;;
43182;SDS011;28802;38.578;-0.066;2022-11-15T17:28:32;6.50;;;3.60;;
43182;SDS011;28802;38.578;-0.066;2022-11-15T17:30:58;6.60;;;3.33;;
43182;SDS011;28802;38.578;-0.066;2022-11-15T17:33:25;9.93;;;3.00;;
43182;SDS011;28802;38.578;-0.066;2022-11-15T17:35:58;11.40;;;3.50;;
43182;SDS011;28802;38.578;-0.066;2022-11-15T17:38:26;11.37;;;3.10;;
43182;SDS011;28802;38.578;-0.066;2022-11-15T17:41:26;9.70;;;2.60;;
43182;SDS011;28802;38.578;-0.066;2022-11-15T17:43:48;8.63;;;3.70;;
43182;SDS011;28802;38.578;-0.066;2022-11-15T17:46:15;19.33;;;4.47;;
43182;SDS011;28802;38.578;-0.066;2022-11-15T17:48:43;10.33;;;3.77;;
43182;SDS011;28802;38.578;-0.066;2022-11-15T17:51:10;13.83;;;3.37;;
43182;SDS011;28802;38.578;-0.066;2022-11-15T17:53:38;14.50;;;5.23;;
43182;SDS011;28802;38.578;-0.066;2022-11-15T17:56:12;8.80;;;4.23;;
43182;SDS011;28802;38.578;-0.066;2022-11-15T17:58:40;13.43;;;3.93;;
43182;SDS011;28802;38.578;-0.066;2022-11-15T18:14:59;11.80;;;4.47;;
43182;SDS011;28802;38.578;-0.066;2022-11-15T18:17:41;18.90;;;5.03;;
43182;SDS011;28802;38.578;-0.066;2022-11-15T18:20:10;15.33;;;4.63;;
43182;SDS011;28802;38.578;-0.066;2022-11-15T18:22:37;10.57;;;3.97;;
43182;SDS011;28802;38.578;-0.066;2022-11-15T18:25:03;11.03;;;3.80;;
43182;SDS011;28802;38.578;-0.066;2022-11-15T18:27:33;16.70;;;4.57;;
43182;SDS011;28802;38.578;-0.066;2022-11-15T18:29:59;22.17;;;4.07;;
43182;SDS011;28802;38.578;-0.066;2022-11-15T18:32:25;12.37;;;4.20;;
43182;SDS011;28802;38.578;-0.066;2022-11-15T18:34:51;12.77;;;3.60;;
43182;SDS011;28802;38.578;-0.066;2022-11-15T18:37:17;7.33;;;3.67;;